Time;durP1;ratioP1;P1;durP2;ratioP2;P2;SDS_P1;SDS_P2;PMS_P1;PMS_P2;Temp;Humidity;BMP_temperature;BMP_pressure;BME280_temperature;BME280_humidity;BME280_pressure;Samples;Min_cycle;Max_cycle;Signal;HPM_P1;HPM_P2
2023/06/06 00:03:55;;;;;;;9.50;7.28;;;;;;;14.59;100.00;97924.03;10557642;28;20122;-73
2023/06/06 00:09:16;;;;;;;8.03;7.00;;;;;;;14.60;100.00;97931.84;10559716;28;20067;-74
2023/06/06 00:14:37;;;;;;;10.50;7.43;;;;;;;14.61;100.00;97924.16;10560174;28;20313;-74
2023/06/06 00:19:58;;;;;;;9.77;7.68;;;;;;;14.57;100.00;97933.09;10544548;28;20059;-74
2023/06/06 00:25:19;;;;;;;9.48;7.43;;;;;;;14.56;100.00;97928.78;10571755;28;20043;-74
2023/06/06 00:30:40;;;;;;;8.68;7.43;;;;;;;14.54;100.00;97914.66;10571685;28;20081;-73
2023/06/06 00:36:00;;;;;;;9.18;7.95;;;;;;;14.54;100.00;97916.72;10556691;28;20075;-73
2023/06/06 00:41:21;;;;;;;8.45;7.65;;;;;;;14.54;100.00;97916.72;10542514;28;20070;-73
2023/06/06 00:46:42;;;;;;;9.25;7.93;;;;;;;14.59;100.00;97916.34;10585909;28;20078;-74
2023/06/06 00:52:03;;;;;;;10.75;8.68;;;;;;;14.54;100.00;97905.50;10556445;28;20449;-74
2023/06/06 00:57:26;;;;;;;11.52;9.52;;;;;;;14.44;100.00;97910.53;10542336;28;20450;-74
2023/06/06 01:02:48;;;;;;;10.47;8.83;;;;;;;14.37;100.00;97908.72;10527344;28;20186;-72
2023/06/06 01:08:12;;;;;;;;;;;;;;;14.23;100.00;97905.88;10528645;28;20353;-74
2023/06/06 01:13:49;;;;;;;11.05;9.10;;;;;;;14.16;100.00;97890.75;10527806;28;20429;-73
2023/06/06 01:19:12;;;;;;;10.13;9.02;;;;;;;14.11;100.00;97888.34;10527813;28;20123;-73
2023/06/06 01:24:34;;;;;;;9.98;8.30;;;;;;;14.19;100.00;97889.53;10527021;28;20506;-72
2023/06/06 01:29:54;;;;;;;9.15;8.25;;;;;;;14.27;100.00;97889.25;10541531;28;20591;-73
2023/06/06 01:35:20;;;;;;;9.32;8.00;;;;;;;14.27;100.00;97894.84;10526110;28;20130;-73
2023/06/06 01:40:42;;;;;;;10.18;6.97;;;;;;;14.26;100.00;97885.69;10540472;28;20063;-73
2023/06/06 01:46:03;;;;;;;8.25;7.13;;;;;;;14.32;100.00;97885.31;10498306;28;20097;-73
2023/06/06 01:51:27;;;;;;;7.28;6.57;;;;;;;14.30;100.00;97882.41;10512237;28;20067;-73
2023/06/06 01:56:48;;;;;;;6.22;5.45;;;;;;;14.22;100.00;97882.69;10539942;28;20059;-72
2023/06/06 02:02:09;;;;;;;6.65;6.05;;;;;;;14.22;100.00;97888.28;10511972;28;20089;-73
2023/06/06 02:07:30;;;;;;;5.90;5.28;;;;;;;14.21;100.00;97886.13;10525251;28;20091;-73
2023/06/06 02:12:51;;;;;;;5.15;4.60;;;;;;;14.23;100.00;97880.59;10525199;28;20140;-72
2023/06/06 02:18:12;;;;;;;4.80;4.30;;;;;;;14.28;100.00;97882.28;10539563;28;20169;-73
2023/06/06 02:23:32;;;;;;;6.43;4.70;;;;;;;14.28;100.00;97873.84;10539566;28;20074;-74
2023/06/06 02:28:53;;;;;;;6.05;4.60;;;;;;;14.26;100.00;97882.91;10511106;28;20119;-73
2023/06/06 02:34:14;;;;;;;5.32;4.82;;;;;;;14.25;100.00;97875.09;10524964;28;20449;-74
2023/06/06 02:39:35;;;;;;;5.82;4.90;;;;;;;14.23;100.00;97878.53;10524709;28;20040;-72
2023/06/06 02:44:56;;;;;;;6.03;5.43;;;;;;;14.22;100.00;97879.16;10519228;28;20116;-72
2023/06/06 02:50:19;;;;;;;6.90;4.63;;;;;;;14.19;100.00;97871.97;10506450;28;20450;-71
2023/06/06 02:55:40;;;;;;;5.38;4.10;;;;;;;14.18;100.00;97887.31;10541583;28;20123;-72
2023/06/06 03:01:01;;;;;;;5.10;4.47;;;;;;;14.16;100.00;97884.41;10501981;28;20569;-71
2023/06/06 03:06:21;;;;;;;5.97;5.20;;;;;;;14.19;100.00;97874.78;10522845;28;20059;-71
2023/06/06 03:11:42;;;;;;;5.38;4.55;;;;;;;14.13;100.00;97885.66;10520115;28;20059;-71
2023/06/06 03:17:04;;;;;;;5.25;4.75;;;;;;;14.04;100.00;97878.84;10542797;28;20106;-72
2023/06/06 03:22:26;;;;;;;5.70;4.43;;;;;;;14.04;100.00;97879.59;10515802;28;20055;-71
2023/06/06 03:27:48;;;;;;;6.00;5.13;;;;;;;14.06;100.00;97881.03;10516062;28;20047;-72
2023/06/06 03:33:11;;;;;;;5.85;4.47;;;;;;;14.08;100.00;97878.34;10544457;28;20124;-71
2023/06/06 03:38:33;;;;;;;5.30;4.80;;;;;;;14.08;100.00;97883.97;10535240;28;20123;-72
2023/06/06 03:43:55;;;;;;;7.57;4.50;;;;;;;14.03;100.00;97874.59;10513179;28;20465;-72
2023/06/06 03:49:17;;;;;;;5.95;5.20;;;;;;;13.96;100.00;97876.31;10519364;28;20043;-71
2023/06/06 03:54:38;;;;;;;5.43;4.75;;;;;;;13.89;100.00;97874.50;10529090;28;20118;-72
2023/06/06 04:00:00;;;;;;;6.28;5.10;;;;;;;13.89;100.00;97874.50;10511881;28;20051;-72
2023/06/06 04:05:21;;;;;;;7.03;5.55;;;;;;;13.92;100.00;97878.91;10521468;28;20521;-71
2023/06/06 04:10:41;;;;;;;7.22;5.57;;;;;;;13.90;100.00;97883.69;10512866;28;20079;-71
2023/06/06 04:16:03;;;;;;;7.75;5.55;;;;;;;13.88;100.00;97880.75;10509353;28;20485;-71
2023/06/06 04:21:25;;;;;;;6.68;5.20;;;;;;;13.85;100.00;97885.50;10501909;28;20640;-72
2023/06/06 04:26:46;;;;;;;6.78;5.45;;;;;;;13.84;100.00;97878.44;10542817;28;20047;-72
2023/06/06 04:32:08;;;;;;;5.80;4.72;;;;;;;13.83;100.00;97877.00;10544395;28;20131;-71
2023/06/06 04:37:32;;;;;;;6.65;4.75;;;;;;;13.82;100.00;97869.91;10514855;28;20067;-72
2023/06/06 04:42:58;;;;;;;5.97;4.68;;;;;;;13.83;100.00;97870.66;10536044;28;20059;-72
2023/06/06 04:48:19;;;;;;;6.10;4.53;;;;;;;13.84;100.00;97883.31;10559231;28;20131;-72
2023/06/06 04:53:42;;;;;;;7.68;4.95;;;;;;;13.78;100.00;97882.97;10534771;28;20035;-71
2023/06/06 04:59:06;;;;;;;6.43;5.03;;;;;;;13.78;100.00;97891.38;10530873;28;20080;-72
2023/06/06 05:04:29;;;;;;;8.00;4.72;;;;;;;13.86;100.00;97881.34;10543070;28;20116;-72
2023/06/06 05:09:51;;;;;;;5.53;4.35;;;;;;;13.88;100.00;97887.09;10521263;28;20114;-72
2023/06/06 05:15:11;;;;;;;5.20;4.03;;;;;;;13.88;100.00;97887.09;10520502;28;20528;-73
2023/06/06 05:20:33;;;;;;;8.02;4.75;;;;;;;13.90;100.00;97897.72;10559239;28;20465;-72
2023/06/06 05:25:56;;;;;;;5.72;4.13;;;;;;;13.95;100.00;97888.16;10528407;28;20127;-72
2023/06/06 05:31:20;;;;;;;;;;;;;;;13.97;100.00;97889.00;10518525;28;20063;-72
2023/06/06 05:36:42;;;;;;;;;;;;;;;14.00;100.00;97887.06;10531527;28;19924;-73
2023/06/06 05:42:03;;;;;;;6.13;4.40;;;;;;;13.88;100.00;97887.09;10527478;28;20007;-73
2023/06/06 05:47:24;;;;;;;8.30;4.57;;;;;;;13.83;100.00;97882.59;10528312;28;20115;-72
2023/06/06 05:52:45;;;;;;;7.25;4.70;;;;;;;13.79;100.00;97890.03;10526185;28;20139;-73
2023/06/06 05:58:05;;;;;;;7.07;4.97;;;;;;;13.86;100.00;97894.66;10530673;28;20072;-74
2023/06/06 06:03:26;;;;;;;7.30;4.78;;;;;;;13.92;100.00;97892.94;10512608;28;20074;-74
2023/06/06 06:08:49;;;;;;;5.85;4.78;;;;;;;13.95;100.00;97893.78;10512189;28;20044;-74
2023/06/06 06:14:10;;;;;;;7.00;4.88;;;;;;;14.04;100.00;97898.50;10484721;28;20466;-73
2023/06/06 06:19:31;;;;;;;6.97;4.25;;;;;;;14.08;100.00;97900.78;10540912;28;20040;-73
2023/06/06 06:24:52;;;;;;;6.38;4.85;;;;;;;14.10;100.00;97901.66;10511757;28;20048;-73
2023/06/06 06:30:13;;;;;;;7.18;4.70;;;;;;;14.17;100.00;97908.31;10497623;28;20409;-74
2023/06/06 06:35:34;;;;;;;6.40;4.47;;;;;;;14.17;100.00;97916.75;10510806;28;20070;-74
2023/06/06 06:40:55;;;;;;;8.63;4.40;;;;;;;14.17;100.00;97911.13;10497182;28;20101;-74
2023/06/06 06:46:16;;;;;;;5.97;4.43;;;;;;;14.29;100.00;97906.22;10529082;28;20493;-76
2023/06/06 06:51:37;;;;;;;6.20;4.38;;;;;;;14.40;100.00;97916.66;10517290;28;20040;-79
2023/06/06 06:56:57;;;;;;;7.57;4.88;;;;;;;14.48;100.00;97913.59;10517552;28;20041;-78
2023/06/06 07:02:19;;;;;;;5.78;4.47;;;;;;;14.50;100.00;97922.88;10533602;28;20059;-75
2023/06/06 07:07:49;;;;;;;7.50;5.30;;;;;;;14.45;100.00;97909.19;10519784;28;20069;-75
2023/06/06 07:13:12;;;;;;;8.07;5.85;;;;;;;14.46;100.00;97922.63;10520017;28;20043;-74
2023/06/06 07:18:33;;;;;;;7.57;6.00;;;;;;;14.62;100.00;97922.06;10534973;28;20067;-74
2023/06/06 07:23:53;;;;;;;7.07;5.70;;;;;;;14.68;99.64;97925.94;10519114;28;20125;-75
2023/06/06 07:29:14;;;;;;;8.55;6.53;;;;;;;14.71;99.56;97919.06;10520162;28;20387;-75
2023/06/06 07:34:35;;;;;;;8.32;6.75;;;;;;;14.82;99.61;97911.91;10505203;28;20489;-75
2023/06/06 07:39:55;;;;;;;10.25;7.20;;;;;;;14.83;98.91;97919.72;10506267;28;20040;-76
2023/06/06 07:45:16;;;;;;;10.20;6.60;;;;;;;14.82;98.89;97928.78;10519496;28;20491;-76
2023/06/06 07:50:37;;;;;;;8.23;6.82;;;;;;;14.88;99.34;97920.69;10522076;28;20059;-76
2023/06/06 07:55:58;;;;;;;10.93;7.05;;;;;;;15.02;98.93;97926.31;10519417;28;20093;-76
2023/06/06 08:01:20;;;;;;;11.02;7.55;;;;;;;15.04;98.72;97921.53;10519052;28;20052;-76
2023/06/06 08:06:42;;;;;;;14.07;7.40;;;;;;;15.13;98.88;97929.03;10518851;28;20093;-76
2023/06/06 08:12:05;;;;;;;10.57;7.05;;;;;;;15.23;97.90;97914.03;10532525;28;20060;-76
2023/06/06 08:17:26;;;;;;;12.10;7.07;;;;;;;15.27;97.48;97925.53;10532854;28;20044;-76
2023/06/06 08:22:50;;;;;;;10.00;6.88;;;;;;;15.09;97.06;97917.59;10532743;28;20044;-75
2023/06/06 08:28:10;;;;;;;11.77;8.55;;;;;;;15.03;97.59;97917.25;10518432;28;20071;-76
2023/06/06 08:33:31;;;;;;;10.23;7.90;;;;;;;15.08;97.94;97916.13;10530995;28;20090;-74
2023/06/06 08:38:52;;;;;;;8.82;7.20;;;;;;;15.20;97.76;97916.03;10517274;28;20044;-75
2023/06/06 08:44:13;;;;;;;12.73;9.05;;;;;;;15.33;97.03;97923.00;10530858;28;20560;-75
2023/06/06 08:49:34;;;;;;;15.77;8.25;;;;;;;15.39;97.03;97924.06;10516241;28;20081;-75
2023/06/06 08:54:55;;;;;;;15.55;9.95;;;;;;;15.36;96.25;97933.03;10537573;28;20473;-75
2023/06/06 09:00:21;;;;;;;10.23;9.00;;;;;;;15.63;96.62;97923.84;10556906;28;20052;-80
2023/06/06 09:05:42;;;;;;;12.13;9.20;;;;;;;15.85;95.91;97930.63;10528205;28;20067;-72
2023/06/06 09:11:03;;;;;;;11.00;8.20;;;;;;;15.89;95.39;97916.75;10541198;28;20083;-73
2023/06/06 09:16:24;;;;;;;16.23;9.27;;;;;;;15.91;95.66;97930.91;10529802;28;20068;-74
2023/06/06 09:21:45;;;;;;;11.68;8.70;;;;;;;15.95;94.59;97933.94;10522740;28;20043;-76
2023/06/06 09:27:06;;;;;;;12.63;9.45;;;;;;;15.88;95.05;97934.25;10520197;28;20044;-79
2023/06/06 09:32:28;;;;;;;13.10;9.10;;;;;;;15.94;94.89;97935.28;10502240;28;20063;-74
2023/06/06 09:37:51;;;;;;;14.10;9.87;;;;;;;16.01;94.77;97941.94;10507238;28;20401;-74
2023/06/06 09:43:13;;;;;;;13.27;8.75;;;;;;;16.14;94.59;97932.75;10521046;28;20088;-74
2023/06/06 09:48:34;;;;;;;10.55;8.45;;;;;;;16.28;93.61;97938.31;10539809;28;20563;-74
2023/06/06 09:53:55;;;;;;;11.90;9.55;;;;;;;16.34;92.20;97935.09;10531387;28;20070;-74
2023/06/06 09:59:16;;;;;;;11.32;10.02;;;;;;;16.38;91.26;97938.09;10529761;28;20080;-75
2023/06/06 10:04:37;;;;;;;13.20;10.32;;;;;;;16.49;91.39;97937.94;10504956;28;20044;-72
2023/06/06 10:09:57;;;;;;;12.38;10.07;;;;;;;16.58;91.82;97931.31;10544067;28;20067;-74
2023/06/06 10:15:18;;;;;;;11.40;10.00;;;;;;;16.59;91.36;97934.84;10539786;28;20047;-75
2023/06/06 10:20:39;;;;;;;11.88;9.48;;;;;;;16.55;90.61;97934.69;10510934;28;20137;-74
2023/06/06 10:26:00;;;;;;;11.90;8.52;;;;;;;16.66;90.10;97941.53;10532780;28;20124;-74
2023/06/06 10:31:32;;;;;;;10.95;7.35;;;;;;;16.56;90.06;97936.13;10552541;28;20044;-73
2023/06/06 10:36:56;;;;;;;7.13;6.40;;;;;;;16.64;89.99;97952.69;10561505;28;20184;-74
2023/06/06 10:42:17;;;;;;;10.38;6.85;;;;;;;16.69;88.75;97937.44;10561468;28;20122;-74
2023/06/06 10:47:44;;;;;;;9.00;6.90;;;;;;;16.58;89.25;97948.22;10590131;28;20123;-74
2023/06/06 10:53:15;;;;;;;10.60;7.90;;;;;;;16.77;88.87;97937.84;10575849;28;20489;-74
2023/06/06 10:58:37;;;;;;;11.50;7.50;;;;;;;16.93;88.18;97937.84;10574391;28;20123;-74
2023/06/06 11:03:58;;;;;;;10.25;7.53;;;;;;;17.15;87.63;97936.03;10560197;28;20120;-74
2023/06/06 11:09:23;;;;;;;8.82;6.82;;;;;;;17.65;87.46;97931.16;10559945;28;20482;-74
2023/06/06 11:14:57;;;;;;;8.93;7.05;;;;;;;17.73;83.85;97937.19;10560024;28;20169;-74
2023/06/06 11:20:19;;;;;;;9.20;6.90;;;;;;;18.13;83.48;97940.25;10573489;28;20059;-74
2023/06/06 11:25:40;;;;;;;10.13;7.07;;;;;;;18.20;81.79;97939.13;10573439;28;20482;-73
2023/06/06 11:31:01;;;;;;;7.47;6.03;;;;;;;17.99;81.71;97929.81;10544984;28;20097;-73
2023/06/06 11:36:28;;;;;;;7.80;7.00;;;;;;;17.74;80.94;97927.34;10560121;28;20046;-74
2023/06/06 11:41:49;;;;;;;11.55;7.38;;;;;;;17.68;81.65;97930.63;10544909;28;20500;-74
2023/06/06 11:47:10;;;;;;;7.40;6.43;;;;;;;17.65;81.23;97939.63;10558177;28;20059;-74
2023/06/06 11:52:31;;;;;;;9.20;7.10;;;;;;;17.59;81.29;97934.47;10572249;28;20060;-72
2023/06/06 11:57:52;;;;;;;9.45;7.43;;;;;;;17.76;80.45;97923.88;10572073;28;20035;-74
2023/06/06 12:03:16;;;;;;;11.32;7.38;;;;;;;17.95;79.96;97943.03;10571221;28;20086;-74
2023/06/06 12:08:38;;;;;;;10.57;7.43;;;;;;;18.12;79.52;97938.78;10586701;28;20048;-73
2023/06/06 12:13:58;;;;;;;12.30;7.00;;;;;;;18.38;79.33;97939.13;10557434;28;20113;-74
2023/06/06 12:19:19;;;;;;;9.52;7.15;;;;;;;18.70;78.62;97926.28;10556743;28;20390;-74
2023/06/06 12:24:40;;;;;;;9.13;7.22;;;;;;;18.42;77.50;97928.72;10557157;28;20052;-74
2023/06/06 12:30:01;;;;;;;12.07;6.70;;;;;;;18.23;78.39;97923.69;10541880;28;20042;-72
2023/06/06 12:35:21;;;;;;;7.70;6.47;;;;;;;18.25;77.59;97921.69;10585736;28;20039;-74
2023/06/06 12:40:42;;;;;;;9.07;5.88;;;;;;;18.46;77.35;97926.06;10536002;28;20046;-73
2023/06/06 12:46:03;;;;;;;12.68;6.50;;;;;;;18.64;77.28;97922.50;10531153;28;20044;-72
2023/06/06 12:51:24;;;;;;;12.68;6.30;;;;;;;18.74;76.97;97931.41;10547731;28;20512;-74
2023/06/06 12:56:45;;;;;;;8.73;6.25;;;;;;;18.77;76.39;97930.81;10540625;28;20040;-72
2023/06/06 13:02:07;;;;;;;7.07;5.75;;;;;;;18.76;76.17;97918.06;10569183;28;20074;-72
2023/06/06 13:07:27;;;;;;;10.10;6.32;;;;;;;18.65;75.82;97926.81;10554987;28;20431;-73
2023/06/06 13:12:49;;;;;;;8.60;6.45;;;;;;;18.45;76.21;97924.59;10554788;28;20035;-73
2023/06/06 13:18:12;;;;;;;9.38;6.80;;;;;;;18.28;76.73;97922.50;10583743;28;20039;-73
2023/06/06 13:23:33;;;;;;;8.95;6.25;;;;;;;18.33;76.79;97912.06;10554674;28;20040;-72
2023/06/06 13:28:54;;;;;;;8.93;5.32;;;;;;;19.02;76.66;97920.44;10540351;28;20485;-73
2023/06/06 13:34:15;;;;;;;9.48;5.85;;;;;;;20.25;75.00;97909.84;10553953;28;20469;-72
2023/06/06 13:39:37;;;;;;;7.20;5.32;;;;;;;21.68;72.05;97909.09;10554426;28;20526;-73
2023/06/06 13:44:57;;;;;;;7.93;5.43;;;;;;;22.85;69.97;97904.84;10539532;28;20039;-73
2023/06/06 13:50:18;;;;;;;8.50;5.25;;;;;;;22.98;65.92;97900.16;10553490;28;20400;-73
2023/06/06 13:55:39;;;;;;;12.20;5.00;;;;;;;23.00;64.71;97903.03;10553062;28;20039;-73
2023/06/06 14:00:59;;;;;;;6.82;5.07;;;;;;;22.28;61.60;97902.78;10529158;28;20052;-74
2023/06/06 14:06:23;;;;;;;6.05;4.72;;;;;;;21.59;61.74;97898.91;10540235;28;20048;-73
2023/06/06 14:11:46;;;;;;;8.60;5.55;;;;;;;21.32;63.13;97891.78;10566827;28;20119;-71
2023/06/06 14:17:08;;;;;;;8.52;5.45;;;;;;;21.19;63.12;97894.94;10539364;28;20050;-73
2023/06/06 14:22:33;;;;;;;8.13;4.95;;;;;;;21.09;63.18;97892.53;10552726;28;20043;-73
2023/06/06 14:27:54;;;;;;;7.10;4.65;;;;;;;20.75;63.31;97897.91;10539710;28;20051;-73
2023/06/06 14:33:16;;;;;;;9.50;4.85;;;;;;;20.42;64.33;97890.50;10552504;28;20044;-72
2023/06/06 14:38:38;;;;;;;8.70;4.60;;;;;;;20.37;65.60;97897.47;10539011;28;20481;-73
2023/06/06 14:44:00;;;;;;;8.07;5.00;;;;;;;20.13;65.34;97897.41;10552730;28;20048;-73
2023/06/06 14:49:21;;;;;;;8.13;4.88;;;;;;;20.23;65.87;97897.72;10537767;28;20048;-72
2023/06/06 14:54:43;;;;;;;7.93;4.80;;;;;;;20.48;66.43;97896.41;10537929;28;20046;-74
2023/06/06 15:00:04;;;;;;;7.22;4.70;;;;;;;20.72;65.93;97888.63;10551873;28;20075;-72
2023/06/06 15:05:27;;;;;;;7.18;4.90;;;;;;;21.11;64.84;97886.91;10551952;28;20046;-73
2023/06/06 15:10:48;;;;;;;7.70;5.00;;;;;;;21.39;64.17;97876.38;10552077;28;20043;-73
2023/06/06 15:16:09;;;;;;;7.03;4.75;;;;;;;21.46;63.03;97876.56;10551579;28;20040;-73
2023/06/06 15:21:30;;;;;;;7.57;4.70;;;;;;;21.66;63.08;97871.41;10572615;28;20040;-73
2023/06/06 15:26:56;;;;;;;6.63;4.50;;;;;;;22.01;62.22;97875.84;10517214;28;20505;-74
2023/06/06 15:32:18;;;;;;;5.90;4.82;;;;;;;22.37;61.18;97884.53;10503928;28;20064;-78
2023/06/06 15:37:40;;;;;;;6.70;4.72;;;;;;;22.63;60.03;97866.63;10549444;28;20070;-82
2023/06/06 15:43:01;;;;;;;5.57;4.22;;;;;;;22.81;58.28;97876.28;10535171;28;20486;-75
2023/06/06 15:48:22;;;;;;;8.07;4.70;;;;;;;22.63;58.17;97870.19;10502174;28;20044;-75
2023/06/06 15:53:43;;;;;;;6.05;4.25;;;;;;;22.52;57.29;97869.25;10529967;28;20085;-80
2023/06/06 15:59:04;;;;;;;6.28;4.53;;;;;;;21.99;56.96;97872.94;10515960;28;20139;-75
2023/06/06 16:04:25;;;;;;;7.18;4.55;;;;;;;21.42;57.71;97872.22;10501277;28;20051;-75
2023/06/06 16:09:47;;;;;;;7.72;4.45;;;;;;;21.17;59.05;97872.19;10528770;28;20064;-75
2023/06/06 16:15:09;;;;;;;6.18;4.28;;;;;;;20.81;59.64;97876.13;10501073;28;20040;-75
2023/06/06 16:20:30;;;;;;;5.63;4.28;;;;;;;20.83;59.96;97873.34;10515691;28;20047;-75
2023/06/06 16:25:51;;;;;;;7.60;4.65;;;;;;;20.89;60.68;97887.00;10514579;28;20048;-74
2023/06/06 16:31:12;;;;;;;6.55;4.50;;;;;;;20.79;60.55;97883.88;10520778;28;20035;-77
2023/06/06 16:36:34;;;;;;;7.43;4.38;;;;;;;20.66;60.75;97888.47;10541136;28;20047;-75
2023/06/06 16:41:55;;;;;;;5.40;4.10;;;;;;;20.42;61.44;97879.19;10533857;28;20408;-74
2023/06/06 16:47:19;;;;;;;5.57;4.30;;;;;;;20.46;61.43;97882.16;10540379;28;20047;-77
2023/06/06 16:52:40;;;;;;;6.32;4.30;;;;;;;20.19;62.50;97877.75;10541726;28;20040;-74
2023/06/06 16:58:01;;;;;;;5.85;4.50;;;;;;;19.83;62.66;97882.97;10555506;28;20047;-74
2023/06/06 17:03:22;;;;;;;7.43;4.57;;;;;;;19.55;63.73;97883.41;10537498;28;20051;-74
2023/06/06 17:08:43;;;;;;;7.38;4.82;;;;;;;19.31;64.11;97883.31;10569360;28;20481;-74
2023/06/06 17:14:04;;;;;;;4.60;4.10;;;;;;;19.10;65.27;97878.28;10569086;28;20044;-73
2023/06/06 17:19:25;;;;;;;9.35;4.45;;;;;;;18.93;66.50;97873.41;10554143;28;20473;-73
2023/06/06 17:24:45;;;;;;;8.15;4.78;;;;;;;18.77;66.74;97888.41;10568571;28;20040;-73
2023/06/06 17:30:07;;;;;;;7.00;4.57;;;;;;;18.71;67.06;97882.50;10553983;28;20047;-75
2023/06/06 17:35:28;;;;;;;8.63;4.25;;;;;;;18.65;67.83;97887.22;10568234;28;20039;-75
2023/06/06 17:40:49;;;;;;;6.75;4.20;;;;;;;18.61;68.12;97890.56;10553167;28;20047;-75
2023/06/06 17:46:10;;;;;;;8.45;4.22;;;;;;;18.59;68.60;97893.34;10553680;28;20044;-76
2023/06/06 17:51:32;;;;;;;6.93;3.90;;;;;;;18.64;69.21;97899.88;10553814;28;20040;-75
2023/06/06 17:56:53;;;;;;;5.20;4.45;;;;;;;18.62;69.74;97892.03;10567155;28;20036;-74
2023/06/06 18:02:14;;;;;;;6.18;5.15;;;;;;;18.51;69.78;97888.09;10539079;28;20047;-73
2023/06/06 18:07:35;;;;;;;6.15;4.68;;;;;;;18.46;71.65;97889.31;10552795;28;20043;-73
2023/06/06 18:12:56;;;;;;;6.90;5.00;;;;;;;18.40;71.16;97899.66;10553031;28;20411;-71
2023/06/06 18:18:18;;;;;;;7.72;4.50;;;;;;;18.21;73.02;97906.66;10552612;28;20044;-73
2023/06/06 18:23:39;;;;;;;6.95;4.47;;;;;;;17.99;73.31;97915.69;10552777;28;20036;-75
2023/06/06 18:29:03;;;;;;;7.78;4.30;;;;;;;17.81;75.15;97919.84;10552692;28;20478;-76
2023/06/06 18:34:23;;;;;;;9.25;4.93;;;;;;;17.70;75.00;97921.53;10551910;28;20039;-76
2023/06/06 18:39:45;;;;;;;8.48;5.00;;;;;;;17.56;76.16;97912.41;10552315;28;20051;-78
2023/06/06 18:45:08;;;;;;;7.75;4.45;;;;;;;17.46;77.30;97910.63;10537998;28;20063;-77
2023/06/06 18:50:30;;;;;;;7.60;4.32;;;;;;;17.41;77.37;97923.09;10566311;28;20040;-77
2023/06/06 18:55:51;;;;;;;8.32;4.80;;;;;;;17.35;78.09;97928.47;10572213;28;20047;-78
2023/06/06 19:01:13;;;;;;;7.47;4.72;;;;;;;17.32;79.21;97929.03;10560440;28;20059;-75
2023/06/06 19:06:35;;;;;;;7.65;4.55;;;;;;;17.27;79.33;97935.84;10532595;28;20043;-74
2023/06/06 19:11:56;;;;;;;6.47;4.53;;;;;;;17.22;79.67;97937.78;10574067;28;20095;-76
2023/06/06 19:17:17;;;;;;;8.65;5.45;;;;;;;17.20;79.70;97937.69;10545778;28;20044;-74
2023/06/06 19:22:37;;;;;;;9.88;5.68;;;;;;;17.12;80.50;97946.50;10573389;28;20039;-75
2023/06/06 19:27:58;;;;;;;6.88;5.03;;;;;;;17.11;80.89;97952.78;10545145;28;20117;-75
2023/06/06 19:33:19;;;;;;;7.75;5.15;;;;;;;17.13;81.34;97961.34;10544648;28;20043;-74
2023/06/06 19:38:40;;;;;;;7.80;4.93;;;;;;;17.13;81.55;97966.97;10562069;28;20059;-71
2023/06/06 19:44:01;;;;;;;7.18;4.93;;;;;;;17.13;81.47;97966.97;10571972;28;20405;-72
2023/06/06 19:49:23;;;;;;;6.22;4.88;;;;;;;17.10;82.25;97977.44;10558329;28;20097;-71
2023/06/06 19:54:44;;;;;;;7.35;5.18;;;;;;;17.09;82.82;97976.00;10566368;28;20040;-71
2023/06/06 20:00:05;;;;;;;6.25;4.85;;;;;;;17.07;82.67;97978.69;10517934;28;20393;-71
2023/06/06 20:05:31;;;;;;;9.13;5.07;;;;;;;17.03;83.64;97986.25;10525529;28;20492;-71
2023/06/06 20:10:52;;;;;;;8.63;5.35;;;;;;;16.95;83.51;97986.59;10528687;28;20039;-72
2023/06/06 20:16:13;;;;;;;10.88;5.88;;;;;;;16.87;83.33;97989.78;10523037;28;20477;-71
2023/06/06 20:21:34;;;;;;;6.95;4.97;;;;;;;16.81;84.05;97988.78;10571418;28;20047;-71
2023/06/06 20:26:55;;;;;;;8.27;5.75;;;;;;;16.78;84.67;97984.38;10556612;28;20042;-72
2023/06/06 20:32:16;;;;;;;8.32;4.70;;;;;;;16.75;84.66;97983.56;10514650;28;20512;-72
2023/06/06 20:37:37;;;;;;;6.18;4.63;;;;;;;16.77;84.81;97989.28;10528466;28;20382;-72
2023/06/06 20:42:58;;;;;;;8.70;5.55;;;;;;;16.71;84.73;97997.47;10532938;28;20063;-72
2023/06/06 20:48:20;;;;;;;8.50;5.70;;;;;;;16.62;84.77;97998.44;10543974;28;20044;-71
2023/06/06 20:53:41;;;;;;;9.20;5.55;;;;;;;16.46;85.80;97998.38;10544332;28;20070;-71
2023/06/06 20:59:02;;;;;;;9.40;6.63;;;;;;;16.25;85.12;97999.47;10530251;28;20059;-72
2023/06/06 21:04:23;;;;;;;9.95;6.30;;;;;;;16.21;86.51;97993.66;10527352;28;20063;-71
2023/06/06 21:09:45;;;;;;;6.82;5.47;;;;;;;16.28;86.79;97997.47;10499586;28;20044;-71
2023/06/06 21:15:07;;;;;;;7.75;5.65;;;;;;;16.32;87.33;97994.88;10498638;28;20044;-71
2023/06/06 21:20:27;;;;;;;8.55;5.60;;;;;;;16.33;87.59;97992.78;10526860;28;20081;-72
2023/06/06 21:25:48;;;;;;;8.90;5.55;;;;;;;16.33;87.67;97989.97;10512756;28;20048;-72
2023/06/06 21:31:09;;;;;;;6.30;5.35;;;;;;;16.31;88.12;97984.97;10512306;28;20371;-71
2023/06/06 21:36:30;;;;;;;9.25;5.93;;;;;;;16.25;88.52;97988.19;10512334;28;20535;-72
2023/06/06 21:41:50;;;;;;;7.65;5.63;;;;;;;16.23;88.44;97988.09;10526247;28;20050;-71
2023/06/06 21:47:11;;;;;;;7.25;5.50;;;;;;;16.24;88.91;97988.84;10512074;28;20459;-71
2023/06/06 21:52:32;;;;;;;8.57;6.15;;;;;;;16.25;89.01;97982.56;10497639;28;20093;-71
2023/06/06 21:57:54;;;;;;;6.75;5.22;;;;;;;16.27;89.96;97979.13;10511542;28;20116;-71
2023/06/06 22:03:15;;;;;;;6.88;5.70;;;;;;;16.25;89.81;97971.31;10551850;28;20060;-71
2023/06/06 22:08:36;;;;;;;6.80;4.90;;;;;;;16.24;89.21;97969.84;10553302;28;20047;-71
2023/06/06 22:13:57;;;;;;;8.30;5.38;;;;;;;16.22;89.31;97971.84;10567364;28;20067;-71
2023/06/06 22:19:18;;;;;;;6.05;4.68;;;;;;;16.25;89.47;97959.31;10552753;28;20103;-71
2023/06/06 22:24:39;;;;;;;7.35;4.82;;;;;;;16.28;88.96;97967.22;10539052;28;20120;-71
2023/06/06 22:30:00;;;;;;;7.22;5.40;;;;;;;16.28;88.96;97967.22;10557320;28;20118;-71
2023/06/06 22:35:23;;;;;;;7.10;5.10;;;;;;;16.28;88.67;97950.31;10532111;28;20541;-71
2023/06/06 22:40:44;;;;;;;10.60;5.45;;;;;;;16.24;88.87;97952.22;10517393;28;20039;-70
2023/06/06 22:46:06;;;;;;;7.28;5.57;;;;;;;16.25;88.76;97956.50;10554835;28;20040;-73
2023/06/06 22:51:27;;;;;;;10.32;5.65;;;;;;;16.22;88.85;97944.41;10553569;28;20040;-70
2023/06/06 22:56:48;;;;;;;10.15;6.10;;;;;;;16.22;88.77;97938.78;10565890;28;20047;-70
2023/06/06 23:02:09;;;;;;;7.78;5.85;;;;;;;16.20;89.20;97932.28;10581342;28;20557;-71
2023/06/06 23:07:30;;;;;;;6.18;5.57;;;;;;;16.22;89.31;97941.59;10551964;28;20050;-71
2023/06/06 23:12:51;;;;;;;10.80;6.63;;;;;;;16.23;89.92;97939.50;10566117;28;20533;-71
2023/06/06 23:18:12;;;;;;;10.60;6.72;;;;;;;16.25;89.38;97936.78;10580882;28;20048;-71
2023/06/06 23:23:33;;;;;;;9.27;6.20;;;;;;;16.24;89.27;97938.88;10565730;28;20059;-70
2023/06/06 23:28:53;;;;;;;9.75;6.65;;;;;;;16.27;89.28;97934.78;10565937;28;20114;-71
2023/06/06 23:34:14;;;;;;;7.95;7.00;;;;;;;16.29;89.65;97937.69;10580722;28;20063;-71
2023/06/06 23:39:35;;;;;;;9.40;7.18;;;;;;;16.23;89.77;97933.88;10553568;28;20067;-71
2023/06/06 23:44:56;;;;;;;11.10;7.13;;;;;;;16.22;89.94;97933.13;10572868;28;20059;-71
2023/06/06 23:50:16;;;;;;;11.88;7.90;;;;;;;16.17;89.90;97931.47;10544661;28;20122;-70
2023/06/06 23:55:37;;;;;;;11.90;7.70;;;;;;;16.15;90.30;97933.47;10558346;28;20484;-70
